createdAt,value
2023-05-16T00:02:25.357Z,70.52
2023-05-16T00:04:53.998Z,70.55
2023-05-16T00:07:22.278Z,70.58
2023-05-16T00:09:50.716Z,70.39
2023-05-16T00:12:22.696Z,70.43
2023-05-16T00:14:51.542Z,70.55
2023-05-16T00:17:20.522Z,70.77
2023-05-16T00:19:49.259Z,70.07
2023-05-16T00:22:17.709Z,70.78
2023-05-16T00:24:46.341Z,70.84
2023-05-16T00:27:14.978Z,70.45
2023-05-16T00:29:45.313Z,70.39
2023-05-16T00:32:13.983Z,70.56
2023-05-16T00:34:42.339Z,70.33
2023-05-16T00:37:10.964Z,70.68
2023-05-16T00:39:39.210Z,70.43
2023-05-16T00:42:07.765Z,70.56
2023-05-16T00:44:36.027Z,70.49
2023-05-16T00:47:06.112Z,70.34
2023-05-16T00:49:34.868Z,70.77
2023-05-16T00:52:04.061Z,70.81
2023-05-16T00:54:32.702Z,70.91
2023-05-16T00:57:01.268Z,70.99
2023-05-16T00:59:29.658Z,70.97
2023-05-16T01:01:58.093Z,70.99
2023-05-16T01:04:29.351Z,70.84
2023-05-16T01:06:57.884Z,71.07
2023-05-16T01:09:26.254Z,71.17
2023-05-16T01:12:03.235Z,71.05
2023-05-16T01:14:42.592Z,70.97
2023-05-16T01:17:21.775Z,70.79
2023-05-16T01:20:04.925Z,70.64
2023-05-16T01:22:47.759Z,71.06
2023-05-16T01:25:40.333Z,70.98
2023-05-16T01:28:11.285Z,70.75
2023-05-16T01:30:41.774Z,71.05
2023-05-16T01:33:10.512Z,71.06
2023-05-16T01:35:44.874Z,71.19
2023-05-16T01:38:19.727Z,71.16
2023-05-16T01:40:55.207Z,71.06
2023-05-16T01:43:32.391Z,71.31
2023-05-16T01:46:06.412Z,70.96
2023-05-16T01:48:41.054Z,71.11
2023-05-16T01:51:10.536Z,71.18
2023-05-16T01:53:40.040Z,71.26
2023-05-16T01:56:14.520Z,71.35
2023-05-16T01:58:47.948Z,71.49
2023-05-16T02:01:16.337Z,71.48
2023-05-16T02:03:44.656Z,71.50
2023-05-16T02:06:12.936Z,71.34
2023-05-16T02:08:41.217Z,71.58
2023-05-16T02:11:09.663Z,71.50
2023-05-16T02:13:38.230Z,71.56
2023-05-16T02:16:08.384Z,71.56
2023-05-16T02:18:36.885Z,71.80
2023-05-16T02:21:06.829Z,71.59
2023-05-16T02:23:35.052Z,71.58
2023-05-16T02:26:03.500Z,71.48
2023-05-16T02:28:31.893Z,71.42
2023-05-16T02:31:00.756Z,71.45
2023-05-16T02:33:30.667Z,71.37
2023-05-16T02:35:59.305Z,71.38
2023-05-16T02:38:27.740Z,71.58
2023-05-16T02:40:57.396Z,71.70
2023-05-16T02:43:25.738Z,71.79
2023-05-16T02:45:54.013Z,71.60
2023-05-16T02:48:22.342Z,71.82
2023-05-16T02:50:52.218Z,71.78
2023-05-16T02:53:20.586Z,71.93
2023-05-16T02:55:48.858Z,71.84
2023-05-16T02:58:17.246Z,71.60
2023-05-16T03:00:45.703Z,71.60
2023-05-16T03:03:14.015Z,71.60
2023-05-16T03:05:42.650Z,71.48
2023-05-16T03:08:12.620Z,71.45
2023-05-16T03:10:40.881Z,71.71
2023-05-16T03:13:09.136Z,71.89
2023-05-16T03:15:37.671Z,72.09
2023-05-16T03:18:06.396Z,71.88
2023-05-16T03:20:34.817Z,71.87
2023-05-16T03:23:03.089Z,71.93
2023-05-16T03:25:32.887Z,72.17
2023-05-16T03:28:01.861Z,71.91
2023-05-16T03:30:30.207Z,72.01
2023-05-16T03:32:59.000Z,72.20
2023-05-16T03:35:27.555Z,72.12
2023-05-16T03:37:56.174Z,71.95
2023-05-16T03:40:24.982Z,71.76
2023-05-16T03:42:54.810Z,71.68
2023-05-16T03:45:23.146Z,71.91
2023-05-16T03:47:51.529Z,71.77
2023-05-16T03:50:20.204Z,71.72
2023-05-16T03:52:48.545Z,72.04
2023-05-16T03:55:16.897Z,72.25
2023-05-16T03:57:45.121Z,72.04
2023-05-16T04:00:15.860Z,72.09
2023-05-16T04:02:44.901Z,72.06
2023-05-16T04:05:14.287Z,72.22
2023-05-16T04:07:42.663Z,72.25
2023-05-16T04:10:12.078Z,71.91
2023-05-16T04:12:40.405Z,71.99
2023-05-16T04:15:09.474Z,72.08
2023-05-16T04:17:39.067Z,72.19
2023-05-16T04:20:08.320Z,72.35
2023-05-16T04:22:36.674Z,71.90
2023-05-16T04:25:05.103Z,71.93
2023-05-16T04:27:33.714Z,72.07
2023-05-16T04:30:02.156Z,72.25
2023-05-16T04:32:30.627Z,72.06
2023-05-16T04:35:00.536Z,72.06
2023-05-16T04:37:28.826Z,72.08
2023-05-16T04:39:57.057Z,72.16
2023-05-16T04:42:25.627Z,72.15
2023-05-16T04:44:54.322Z,71.96
2023-05-16T04:47:22.620Z,72.07
2023-05-16T04:49:51.220Z,72.05
2023-05-16T04:52:21.244Z,71.49
2023-05-16T04:54:52.343Z,71.32
2023-05-16T04:57:20.633Z,71.23
2023-05-16T04:59:48.915Z,71.48
2023-05-16T05:02:17.248Z,71.22
2023-05-16T05:04:45.583Z,71.16
2023-05-16T05:07:14.631Z,70.58
2023-05-16T05:09:45.154Z,70.68
2023-05-16T05:12:13.508Z,70.78
2023-05-16T05:14:41.780Z,70.81
2023-05-16T05:17:10.328Z,70.75
2023-05-16T05:19:38.761Z,70.49
2023-05-16T05:22:07.228Z,70.91
2023-05-16T05:24:35.927Z,70.54
2023-05-16T05:27:05.842Z,70.47
2023-05-16T05:29:34.205Z,70.89
2023-05-16T05:32:02.620Z,70.38
2023-05-16T05:34:31.130Z,70.75
2023-05-16T05:36:59.371Z,70.35
2023-05-16T05:39:27.681Z,70.42
2023-05-16T05:41:56.034Z,70.71
2023-05-16T05:44:25.923Z,70.53
2023-05-16T05:46:54.192Z,70.69
2023-05-16T05:49:23.414Z,70.79
2023-05-16T05:51:52.363Z,70.32
2023-05-16T05:54:20.745Z,70.64
2023-05-16T05:56:49.104Z,70.95
2023-05-16T05:59:17.484Z,70.62
2023-05-16T06:01:47.255Z,71.21
2023-05-16T06:04:15.613Z,70.81
2023-05-16T06:06:43.883Z,71.79
2023-05-16T06:09:12.753Z,72.31
2023-05-16T06:11:41.242Z,71.19
2023-05-16T06:14:09.714Z,71.79
2023-05-16T06:16:39.511Z,71.67
2023-05-16T06:19:09.566Z,71.21
2023-05-16T06:21:38.031Z,71.50
2023-05-16T06:24:06.573Z,70.80
2023-05-16T06:26:34.991Z,72.51
2023-05-16T06:29:03.393Z,71.52
2023-05-16T06:31:35.054Z,71.55
2023-05-16T06:34:03.422Z,71.26
2023-05-16T06:36:33.219Z,70.90
2023-05-16T06:39:01.651Z,70.84
2023-05-16T06:41:29.975Z,71.06
2023-05-16T06:43:58.499Z,70.97
2023-05-16T06:46:27.335Z,71.35
2023-05-16T06:48:55.804Z,70.62
2023-05-16T06:51:24.508Z,70.96
2023-05-16T06:53:54.255Z,72.06
2023-05-16T06:56:22.896Z,71.20
2023-05-16T06:58:51.420Z,71.91
2023-05-16T07:01:19.772Z,72.39
2023-05-16T07:03:48.553Z,72.48
2023-05-16T07:06:16.922Z,71.64
2023-05-16T07:08:45.319Z,73.18
2023-05-16T07:11:15.132Z,71.67
2023-05-16T07:13:46.009Z,72.26
2023-05-16T07:16:14.686Z,71.06
2023-05-16T07:18:43.084Z,70.05
2023-05-16T07:21:11.578Z,71.57
2023-05-16T07:23:39.921Z,71.00
2023-05-16T07:26:08.245Z,71.25
2023-05-16T07:28:37.961Z,71.21
2023-05-16T07:31:06.906Z,71.02
2023-05-16T07:33:35.185Z,69.50
2023-05-16T07:36:15.341Z,70.93
2023-05-16T07:38:44.310Z,69.68
2023-05-16T07:41:12.760Z,70.31
2023-05-16T07:43:42.572Z,70.32
2023-05-16T07:46:12.777Z,70.82
2023-05-16T07:48:41.339Z,70.40
2023-05-16T07:51:09.837Z,68.75
2023-05-16T07:53:38.203Z,69.57
2023-05-16T07:56:07.419Z,70.93
2023-05-16T07:58:35.826Z,69.18
2023-05-16T08:01:05.824Z,70.03
2023-05-16T08:03:34.493Z,70.58
2023-05-16T08:06:03.032Z,70.15
2023-05-16T08:08:31.528Z,68.55
2023-05-16T08:10:59.953Z,69.54
2023-05-16T08:13:28.266Z,68.76
2023-05-16T08:15:56.651Z,70.72
2023-05-16T08:18:26.409Z,69.74
2023-05-16T08:20:54.809Z,70.45
2023-05-16T08:23:23.108Z,69.79
2023-05-16T08:25:51.462Z,69.52
2023-05-16T08:28:19.886Z,70.39
2023-05-16T08:30:48.326Z,70.31
2023-05-16T08:33:16.938Z,69.55
2023-05-16T08:35:48.927Z,70.66
2023-05-16T08:38:17.385Z,70.19
2023-05-16T08:40:45.781Z,70.08
2023-05-16T08:43:14.240Z,69.07
2023-05-16T08:45:42.946Z,69.23
2023-05-16T08:48:12.166Z,69.05
2023-05-16T08:50:42.832Z,68.87
2023-05-16T08:53:15.882Z,68.50
2023-05-16T08:55:46.957Z,70.03
2023-05-16T08:58:15.996Z,69.15
2023-05-16T09:00:45.128Z,69.75
2023-05-16T09:03:13.960Z,69.42
2023-05-16T09:05:42.813Z,67.68
2023-05-16T09:08:13.162Z,69.95
2023-05-16T09:10:41.560Z,68.56
2023-05-16T09:13:09.936Z,68.47
2023-05-16T09:15:38.207Z,68.25
2023-05-16T09:18:07.369Z,66.30
2023-05-16T09:20:35.801Z,68.43
2023-05-16T09:23:04.144Z,67.49
2023-05-16T09:25:34.189Z,67.62
2023-05-16T09:28:03.804Z,68.97
2023-05-16T09:30:34.092Z,68.95
2023-05-16T09:33:02.948Z,67.93
2023-05-16T09:38:04.095Z,66.63
2023-05-16T09:40:33.913Z,71.16
2023-05-16T09:43:06.760Z,68.10
2023-05-16T09:45:36.381Z,67.19
2023-05-16T09:48:06.979Z,68.32
2023-05-16T09:50:35.795Z,67.30
2023-05-16T09:53:04.403Z,68.18
2023-05-16T09:55:34.653Z,66.81
2023-05-16T09:58:03.015Z,67.16
2023-05-16T10:00:32.786Z,64.65
2023-05-16T10:03:05.141Z,68.03
2023-05-16T10:05:37.888Z,67.55
2023-05-16T10:08:07.258Z,65.95
2023-05-16T10:10:39.388Z,66.29
2023-05-16T10:13:09.843Z,67.33
2023-05-16T10:15:39.422Z,71.37
2023-05-16T10:18:12.089Z,68.30
2023-05-16T10:20:43.858Z,68.09
2023-05-16T10:23:17.601Z,70.42
2023-05-16T10:25:49.149Z,68.59
2023-05-16T10:28:18.360Z,67.85
2023-05-16T10:30:47.847Z,68.73
2023-05-16T10:33:17.617Z,69.14
2023-05-16T10:35:46.835Z,69.98
2023-05-16T10:38:18.549Z,104.82
2023-05-16T10:40:49.242Z,111.01
2023-05-16T10:43:26.716Z,114.90
2023-05-16T10:45:59.133Z,114.91
2023-05-16T10:48:32.010Z,117.40
2023-05-16T10:51:00.608Z,117.31
2023-05-16T10:53:33.642Z,116.39
2023-05-16T10:56:12.603Z,115.28
2023-05-16T10:58:46.063Z,116.22
2023-05-16T11:01:22.897Z,118.67
2023-05-16T11:04:10.361Z,114.96
2023-05-16T11:07:02.937Z,117.19
2023-05-16T11:09:31.347Z,-5.90
2023-05-16T11:12:04.693Z,115.89
2023-05-16T11:14:42.830Z,117.25
2023-05-16T11:17:13.522Z,-3.86
2023-05-16T11:19:44.723Z,116.81
2023-05-16T11:22:25.068Z,116.94
2023-05-16T11:24:56.279Z,116.25
2023-05-16T11:27:28.138Z,110.69
2023-05-16T11:30:02.074Z,109.55
2023-05-16T11:32:32.480Z,115.28
2023-05-16T11:35:01.279Z,111.23
2023-05-16T11:37:29.801Z,109.55
2023-05-16T11:40:01.933Z,111.07
2023-05-16T11:42:34.134Z,103.78
2023-05-16T11:45:09.859Z,103.83
2023-05-16T11:47:39.487Z,107.82
2023-05-16T11:50:10.112Z,109.21
2023-05-16T11:52:39.138Z,114.09
2023-05-16T11:55:11.043Z,106.46
2023-05-16T11:57:42.085Z,107.30
2023-05-16T12:00:17.853Z,104.73
2023-05-16T12:02:47.789Z,108.04
2023-05-16T12:05:20.243Z,108.57
2023-05-16T12:07:49.252Z,106.02
2023-05-16T12:10:18.073Z,101.03
2023-05-16T12:12:49.318Z,102.23
2023-05-16T12:15:17.844Z,101.46
2023-05-16T12:17:47.982Z,103.12
2023-05-16T12:20:17.271Z,99.42
2023-05-16T12:22:46.457Z,100.35
2023-05-16T12:25:28.454Z,98.19
2023-05-16T12:27:59.846Z,100.01
2023-05-16T12:30:30.545Z,101.19
2023-05-16T12:32:59.867Z,96.87
2023-05-16T12:35:33.342Z,94.98
2023-05-16T12:38:04.874Z,101.69
2023-05-16T12:40:33.372Z,102.14
2023-05-16T12:43:03.527Z,106.30
2023-05-16T12:45:33.953Z,103.27
2023-05-16T12:48:07.935Z,100.06
2023-05-16T12:50:36.844Z,102.15
2023-05-16T12:53:05.261Z,105.84
2023-05-16T12:55:34.135Z,105.90
2023-05-16T12:58:04.647Z,104.52
2023-05-16T13:00:33.271Z,104.59
2023-05-16T13:03:01.776Z,105.51
2023-05-16T13:05:30.323Z,108.44
2023-05-16T13:07:58.791Z,104.56
2023-05-16T13:10:27.396Z,106.28
2023-05-16T13:12:58.504Z,105.18
2023-05-16T13:15:28.529Z,104.37
2023-05-16T13:17:57.649Z,105.75
2023-05-16T13:20:26.037Z,104.74
2023-05-16T13:22:54.352Z,106.37
2023-05-16T13:25:22.940Z,103.17
2023-05-16T13:27:51.309Z,103.98
2023-05-16T13:30:19.897Z,99.50
2023-05-16T13:32:49.802Z,97.03
2023-05-16T13:35:18.440Z,95.37
2023-05-16T13:37:46.974Z,98.90
2023-05-16T13:40:15.362Z,100.23
2023-05-16T13:42:43.988Z,99.08
2023-05-16T13:45:12.695Z,96.65
2023-05-16T13:47:41.661Z,94.32
2023-05-16T13:50:12.299Z,96.10
2023-05-16T13:52:40.834Z,95.07
2023-05-16T13:55:09.734Z,97.14
2023-05-16T13:57:38.351Z,98.10
2023-05-16T14:02:44.517Z,96.29
2023-05-16T14:05:14.328Z,96.20
2023-05-16T14:07:43.745Z,94.71
2023-05-16T14:10:13.936Z,91.74
2023-05-16T14:12:42.314Z,94.27
2023-05-16T14:15:11.719Z,94.43
2023-05-16T14:17:40.244Z,90.18
2023-05-16T14:20:10.840Z,93.15
2023-05-16T14:22:41.803Z,89.99
2023-05-16T14:25:10.602Z,88.69
2023-05-16T14:27:38.904Z,91.37
2023-05-16T14:30:09.597Z,93.04
2023-05-16T14:32:38.025Z,92.88
2023-05-16T14:35:07.120Z,93.30
2023-05-16T14:37:35.387Z,95.59
2023-05-16T14:40:06.414Z,92.72
2023-05-16T14:42:34.799Z,94.09
2023-05-16T14:45:03.458Z,95.42
2023-05-16T14:47:31.907Z,94.71
2023-05-16T14:50:01.293Z,97.62
2023-05-16T14:52:29.832Z,98.93
2023-05-16T14:54:58.137Z,97.81
2023-05-16T14:57:28.003Z,95.31
2023-05-16T14:59:56.626Z,89.49
2023-05-16T15:02:27.012Z,90.45
2023-05-16T15:04:55.812Z,86.66
2023-05-16T15:07:24.647Z,86.22
2023-05-16T15:09:53.027Z,84.75
2023-05-16T15:12:21.832Z,83.41
2023-05-16T15:14:51.632Z,88.49
2023-05-16T15:17:20.633Z,87.97
2023-05-16T15:19:49.120Z,85.83
2023-05-16T15:22:17.439Z,86.52
2023-05-16T15:24:45.802Z,84.54
2023-05-16T15:27:14.164Z,83.55
2023-05-16T15:29:42.512Z,82.64
2023-05-16T15:32:13.847Z,81.91
2023-05-16T15:34:42.593Z,80.56
2023-05-16T15:37:11.088Z,84.53
2023-05-16T15:39:39.635Z,87.12
2023-05-16T15:42:11.214Z,80.56
2023-05-16T15:44:40.306Z,82.83
2023-05-16T15:47:09.218Z,81.23
2023-05-16T15:49:39.132Z,78.17
2023-05-16T15:52:07.721Z,78.69
2023-05-16T15:54:36.929Z,80.84
2023-05-16T15:57:05.731Z,82.36
2023-05-16T15:59:34.207Z,81.10
2023-05-16T16:02:05.394Z,80.56
2023-05-16T16:04:33.800Z,81.09
2023-05-16T16:07:03.702Z,81.20
2023-05-16T16:09:32.150Z,77.54
2023-05-16T16:12:00.627Z,78.42
2023-05-16T16:14:29.174Z,78.56
2023-05-16T16:16:57.674Z,80.69
2023-05-16T16:19:26.702Z,81.14
2023-05-16T16:21:55.193Z,82.74
2023-05-16T16:24:25.215Z,81.36
2023-05-16T16:29:22.036Z,83.87
2023-05-16T16:31:50.539Z,83.60
2023-05-16T16:34:21.581Z,80.17
2023-05-16T16:36:51.553Z,82.58
2023-05-16T16:39:19.959Z,89.15
2023-05-16T16:41:49.901Z,91.97
2023-05-16T16:44:18.539Z,91.18
2023-05-16T16:46:46.913Z,90.38
2023-05-16T16:49:15.385Z,84.45
2023-05-16T16:51:43.802Z,82.07
2023-05-16T16:54:12.064Z,84.00
2023-05-16T16:56:40.517Z,85.03
2023-05-16T16:59:11.534Z,83.86
2023-05-16T17:01:39.923Z,84.90
2023-05-16T17:04:08.654Z,83.55
2023-05-16T17:06:37.229Z,84.19
2023-05-16T17:09:07.065Z,85.50
2023-05-16T17:11:37.468Z,82.77
2023-05-16T17:14:06.331Z,84.27
2023-05-16T17:16:36.392Z,85.88
2023-05-16T17:19:05.556Z,87.08
2023-05-16T17:21:34.822Z,89.06
2023-05-16T17:24:03.867Z,88.47
2023-05-16T17:26:32.275Z,94.45
2023-05-16T17:29:01.555Z,94.81
2023-05-16T17:31:30.083Z,96.43
2023-05-16T17:33:59.950Z,97.74
2023-05-16T17:36:28.468Z,99.62
2023-05-16T17:38:56.875Z,100.46
2023-05-16T17:41:25.273Z,101.76
2023-05-16T17:43:53.701Z,101.28
2023-05-16T17:46:23.615Z,100.67
2023-05-16T17:48:51.924Z,101.28
2023-05-16T17:51:21.762Z,102.28
2023-05-16T17:53:50.686Z,101.38
2023-05-16T17:56:19.666Z,101.37
2023-05-16T17:58:48.118Z,102.22
2023-05-16T18:01:16.717Z,101.49
2023-05-16T18:03:45.081Z,100.83
2023-05-16T18:06:13.825Z,99.64
2023-05-16T18:08:43.756Z,100.42
2023-05-16T18:11:12.235Z,98.44
2023-05-16T18:13:40.680Z,97.32
2023-05-16T18:16:10.145Z,97.56
2023-05-16T18:18:40.141Z,98.39
2023-05-16T18:21:08.711Z,96.71
2023-05-16T18:23:37.410Z,96.51
2023-05-16T18:26:07.154Z,93.58
2023-05-16T18:28:35.635Z,95.04
2023-05-16T18:31:07.191Z,95.67
2023-05-16T18:33:35.718Z,97.48
2023-05-16T18:36:04.730Z,97.64
2023-05-16T18:38:33.845Z,96.07
2023-05-16T18:41:02.613Z,95.19
2023-05-16T18:43:35.318Z,92.31
2023-05-16T18:46:04.116Z,90.89
2023-05-16T18:48:34.676Z,93.55
2023-05-16T18:51:04.759Z,94.35
2023-05-16T18:53:33.189Z,94.63
2023-05-16T18:56:01.586Z,93.78
2023-05-16T18:58:29.912Z,92.95
2023-05-16T19:00:59.732Z,91.79
2023-05-16T19:03:28.272Z,90.93
2023-05-16T19:05:57.413Z,92.59
2023-05-16T19:08:31.316Z,89.51
2023-05-16T19:11:05.531Z,91.13
2023-05-16T19:13:34.977Z,91.01
2023-05-16T19:16:05.015Z,87.42
2023-05-16T19:18:35.128Z,88.21
2023-05-16T19:21:03.827Z,87.61
2023-05-16T19:23:32.356Z,86.86
2023-05-16T19:26:01.258Z,84.54
2023-05-16T19:28:29.730Z,82.88
2023-05-16T19:30:58.973Z,82.27
2023-05-16T19:33:28.713Z,81.26
2023-05-16T19:35:58.504Z,80.49
2023-05-16T19:38:28.275Z,79.90
2023-05-16T19:40:56.660Z,78.98
2023-05-16T19:43:25.026Z,78.75
2023-05-16T19:45:53.690Z,78.07
2023-05-16T19:48:22.272Z,78.23
2023-05-16T19:50:52.156Z,78.27
2023-05-16T19:53:22.331Z,77.37
2023-05-16T19:55:52.597Z,78.16
2023-05-16T19:58:21.145Z,77.05
2023-05-16T20:00:50.960Z,77.24
2023-05-16T20:03:19.365Z,76.37
2023-05-16T20:05:47.987Z,76.35
2023-05-16T20:08:17.689Z,76.50
2023-05-16T20:10:46.182Z,76.74
2023-05-16T20:13:18.411Z,75.89
2023-05-16T20:15:46.785Z,75.98
2023-05-16T20:18:15.214Z,75.71
2023-05-16T20:20:44.783Z,75.48
2023-05-16T20:23:13.113Z,76.08
2023-05-16T20:25:42.852Z,74.62
2023-05-16T20:28:14.436Z,75.45
2023-05-16T20:30:42.758Z,75.49
2023-05-16T20:33:11.094Z,75.15
2023-05-16T20:35:39.504Z,74.03
2023-05-16T20:38:08.019Z,73.07
2023-05-16T20:40:36.447Z,73.12
2023-05-16T20:43:06.984Z,73.12
2023-05-16T20:45:35.403Z,71.76
2023-05-16T20:48:03.778Z,69.20
2023-05-16T20:50:32.196Z,68.91
2023-05-16T20:53:00.535Z,68.87
2023-05-16T20:55:29.144Z,68.58
2023-05-16T20:57:57.615Z,68.69
2023-05-16T21:00:27.375Z,68.55
2023-05-16T21:02:55.835Z,68.30
2023-05-16T21:05:25.940Z,68.73
2023-05-16T21:07:54.556Z,68.55
2023-05-16T21:10:22.969Z,68.90
2023-05-16T21:12:51.462Z,68.93
2023-05-16T21:15:25.178Z,68.68
2023-05-16T21:17:55.079Z,69.16
2023-05-16T21:20:23.543Z,68.88
2023-05-16T21:22:51.957Z,69.22
2023-05-16T21:25:20.354Z,69.35
2023-05-16T21:27:48.725Z,69.30
2023-05-16T21:30:19.862Z,68.72
2023-05-16T21:32:48.204Z,67.94
2023-05-16T21:35:18.028Z,67.78
2023-05-16T21:37:46.396Z,67.79
2023-05-16T21:40:19.203Z,67.71
2023-05-16T21:42:47.578Z,67.72
2023-05-16T21:45:16.622Z,67.31
2023-05-16T21:47:45.442Z,67.33
2023-05-16T21:50:14.255Z,67.21
2023-05-16T21:52:44.087Z,67.23
2023-05-16T21:55:12.544Z,67.16
2023-05-16T21:57:41.018Z,66.82
2023-05-16T22:00:10.314Z,66.54
2023-05-16T22:02:38.664Z,66.64
2023-05-16T22:05:08.165Z,66.43
2023-05-16T22:07:37.009Z,66.28
2023-05-16T22:10:07.849Z,66.40
2023-05-16T22:12:36.204Z,66.22
2023-05-16T22:15:05.340Z,66.21
2023-05-16T22:17:33.837Z,66.11
2023-05-16T22:20:02.549Z,66.24
2023-05-16T22:22:30.957Z,66.28
2023-05-16T22:24:59.261Z,66.29
2023-05-16T22:27:28.981Z,66.06
2023-05-16T22:29:57.266Z,66.23
2023-05-16T22:32:25.655Z,66.14
2023-05-16T22:34:54.047Z,66.20
2023-05-16T22:37:22.352Z,66.11
2023-05-16T22:39:50.669Z,66.25
2023-05-16T22:42:18.957Z,66.07
2023-05-16T22:44:48.816Z,66.20
2023-05-16T22:47:17.102Z,65.90
2023-05-16T22:49:45.358Z,66.23
2023-05-16T22:52:13.699Z,66.14
2023-05-16T22:54:42.774Z,66.11
2023-05-16T22:57:11.160Z,65.95
2023-05-16T22:59:39.472Z,66.12
2023-05-16T23:02:09.228Z,66.20
2023-05-16T23:04:37.550Z,66.28
2023-05-16T23:07:06.270Z,66.00
2023-05-16T23:09:34.498Z,66.07
2023-05-16T23:12:02.814Z,66.27
2023-05-16T23:14:31.127Z,66.25
2023-05-16T23:16:59.610Z,66.17
2023-05-16T23:19:29.908Z,66.13
2023-05-16T23:21:58.385Z,66.31
2023-05-16T23:24:26.807Z,66.28
2023-05-16T23:26:55.153Z,66.12
2023-05-16T23:29:23.467Z,66.27
2023-05-16T23:31:52.095Z,66.34
2023-05-16T23:34:20.442Z,66.26
2023-05-16T23:36:50.247Z,66.41
2023-05-16T23:39:18.632Z,66.36
2023-05-16T23:41:47.000Z,66.33
2023-05-16T23:44:15.359Z,66.40
2023-05-16T23:46:43.736Z,66.48
2023-05-16T23:49:12.032Z,66.36
2023-05-16T23:51:55.877Z,66.30
2023-05-16T23:54:27.032Z,66.49
2023-05-16T23:56:55.447Z,66.37
2023-05-16T23:59:23.699Z,66.27
